Time;durP1;ratioP1;P1;durP2;ratioP2;P2;SDS_P1;SDS_P2;PMS_P1;PMS_P2;Temp;Humidity;BMP_temperature;BMP_pressure;BME280_temperature;BME280_humidity;BME280_pressure;Samples;Min_cycle;Max_cycle;Signal;HPM_P1;HPM_P2
2023/07/05 00:00:03;;;;;;;13.98;7.13;;;14.80;99.90;;;;;;4993769;28;20235;-74
2023/07/05 00:02:34;;;;;;;13.95;7.25;;;14.90;99.90;;;;;;4990045;28;20675;-75
2023/07/05 00:05:06;;;;;;;16.13;7.80;;;15.10;99.90;;;;;;4991825;28;20204;-73
2023/07/05 00:07:37;;;;;;;15.95;7.25;;;15.20;99.90;;;;;;4990852;28;20229;-73
2023/07/05 00:10:09;;;;;;;9.63;6.18;;;15.30;99.90;;;;;;4992215;28;20199;-73
2023/07/05 00:12:42;;;;;;;9.50;5.93;;;15.50;99.90;;;;;;4991717;28;20196;-73
2023/07/05 00:15:13;;;;;;;10.50;5.93;;;15.60;99.90;;;;;;4993289;28;20226;-73
2023/07/05 00:17:45;;;;;;;8.93;5.40;;;15.70;99.90;;;;;;4991067;28;20214;-73
2023/07/05 00:20:16;;;;;;;9.98;5.60;;;15.80;99.90;;;;;;4992517;28;20670;-73
2023/07/05 00:22:48;;;;;;;9.85;6.25;;;16.00;99.90;;;;;;4991640;28;20614;-73
2023/07/05 00:25:19;;;;;;;12.10;6.13;;;16.10;99.90;;;;;;4989144;28;20251;-73
2023/07/05 00:27:52;;;;;;;9.52;5.57;;;16.10;99.90;;;;;;4991430;28;20204;-73
2023/07/05 00:30:23;;;;;;;10.20;5.97;;;16.10;99.90;;;;;;4991822;28;20202;-73
2023/07/05 00:32:54;;;;;;;13.52;6.57;;;16.20;99.90;;;;;;4993149;28;20204;-74
2023/07/05 00:35:26;;;;;;;8.27;4.97;;;16.40;99.90;;;;;;4987340;28;20215;-75
2023/07/05 00:37:57;;;;;;;7.18;4.93;;;16.50;99.90;;;;;;4987850;28;20204;-74
2023/07/05 00:40:28;;;;;;;7.53;4.75;;;16.50;99.90;;;;;;4991045;28;20211;-75
2023/07/05 00:43:01;;;;;;;7.00;4.53;;;16.70;99.90;;;;;;4993777;28;20196;-76
2023/07/05 00:45:56;;;;;;;6.97;4.47;;;16.80;99.90;;;;;;4988107;28;20193;-75
2023/07/05 00:48:33;;;;;;;10.30;4.93;;;17.00;99.90;;;;;;4978821;28;20207;-76
2023/07/05 00:51:07;;;;;;;6.30;4.20;;;17.10;99.90;;;;;;4991547;28;20207;-75
2023/07/05 00:53:41;;;;;;;5.93;3.85;;;17.20;99.90;;;;;;4992950;28;20721;-76
2023/07/05 00:56:29;;;;;;;6.72;4.00;;;17.30;99.90;;;;;;4992587;28;20231;-74
2023/07/05 00:59:03;;;;;;;6.22;4.30;;;17.50;99.90;;;;;;4990028;28;20200;-75
2023/07/05 01:01:34;;;;;;;4.65;3.47;;;17.60;99.90;;;;;;4991225;28;20234;-76
2023/07/05 01:04:06;;;;;;;5.00;3.40;;;17.70;99.90;;;;;;4992036;28;20187;-75
2023/07/05 01:06:39;;;;;;;4.53;3.30;;;17.80;99.90;;;;;;4989470;28;20204;-74
2023/07/05 01:09:10;;;;;;;6.93;4.15;;;17.90;99.90;;;;;;4996093;28;20196;-76
2023/07/05 01:11:51;;;;;;;5.55;3.67;;;17.90;99.90;;;;;;4997001;28;20192;-76
2023/07/05 01:14:33;;;;;;;5.45;3.47;;;18.00;99.90;;;;;;4994995;28;20671;-76
2023/07/05 01:17:14;;;;;;;6.00;3.50;;;18.10;99.90;;;;;;4997215;28;20200;-76
2023/07/05 01:20:13;;;;;;;4.35;3.15;;;18.30;99.90;;;;;;4996866;28;20285;-75
2023/07/05 01:23:14;;;;;;;4.07;3.10;;;18.50;99.90;;;;;;4997009;28;20199;-75
2023/07/05 01:26:16;;;;;;;4.72;3.20;;;18.60;99.90;;;;;;4995943;28;20207;-76
2023/07/05 01:29:21;;;;;;;6.00;3.22;;;18.70;99.90;;;;;;4964951;28;20230;-77
2023/07/05 01:32:05;;;;;;;5.82;4.00;;;18.80;99.90;;;;;;4993513;28;20207;-75
2023/07/05 01:34:46;;;;;;;5.25;3.00;;;18.90;99.90;;;;;;4995761;28;20584;-76
2023/07/05 01:37:36;;;;;;;4.97;2.53;;;19.00;99.90;;;;;;4996585;28;20202;-77
2023/07/05 01:40:37;;;;;;;7.97;2.60;;;19.10;99.90;;;;;;4993932;28;20250;-76
2023/07/05 01:43:11;;;;;;;5.38;2.42;;;19.10;99.90;;;;;;4995699;28;20211;-75
2023/07/05 01:45:55;;;;;;;3.38;2.15;;;19.10;99.90;;;;;;4995570;28;20207;-77
2023/07/05 01:48:37;;;;;;;2.10;1.90;;;19.20;99.90;;;;;;4996282;28;20666;-76
2023/07/05 01:51:16;;;;;;;4.00;2.00;;;19.30;99.90;;;;;;4996254;28;20192;-77
2023/07/05 01:53:58;;;;;;;2.30;1.95;;;19.40;99.90;;;;;;4993651;28;20282;-76
2023/07/05 01:56:33;;;;;;;3.10;1.83;;;19.50;99.90;;;;;;4996312;28;20239;-76
2023/07/05 01:59:08;;;;;;;1.73;1.52;;;19.60;99.90;;;;;;4996243;28;20211;-77
2023/07/05 02:01:42;;;;;;;2.17;1.60;;;19.60;99.90;;;;;;4994561;28;20698;-76
2023/07/05 02:04:16;;;;;;;2.22;1.80;;;19.70;99.90;;;;;;4993829;28;20241;-79
2023/07/05 02:06:48;;;;;;;1.98;1.30;;;19.80;99.90;;;;;;4996003;28;20673;-77
2023/07/05 02:09:20;;;;;;;3.63;2.60;;;19.90;99.90;;;;;;4993119;28;20199;-77
2023/07/05 02:11:51;;;;;;;6.65;2.30;;;19.90;99.90;;;;;;4995891;28;20187;-77
2023/07/05 02:14:22;;;;;;;1.95;1.40;;;19.90;99.90;;;;;;4995832;28;20194;-79
2023/07/05 02:16:53;;;;;;;1.55;1.15;;;19.90;99.90;;;;;;4994594;28;20757;-78
2023/07/05 02:19:26;;;;;;;2.00;1.15;;;19.90;99.90;;;;;;4994804;28;20378;-74
2023/07/05 02:21:57;;;;;;;1.73;1.20;;;20.00;99.90;;;;;;4995910;28;20188;-76
2023/07/05 02:24:29;;;;;;;3.63;1.13;;;20.10;99.90;;;;;;4994763;28;21162;-79
2023/07/05 02:27:00;;;;;;;2.65;1.30;;;20.20;99.90;;;;;;4995616;28;20287;-75
2023/07/05 02:29:31;;;;;;;1.10;0.90;;;20.30;99.90;;;;;;4979216;28;20208;-75
2023/07/05 02:32:03;;;;;;;0.90;0.80;;;20.50;99.90;;;;;;4993890;28;20266;-74
2023/07/05 02:34:39;;;;;;;1.70;0.80;;;20.50;99.90;;;;;;4976452;28;20188;-76
2023/07/05 02:37:10;;;;;;;1.98;0.68;;;20.60;99.90;;;;;;4995009;28;20718;-78
2023/07/05 02:39:41;;;;;;;0.70;0.70;;;20.60;99.90;;;;;;4994143;28;20568;-78
2023/07/05 02:42:13;;;;;;;0.98;0.85;;;20.60;99.90;;;;;;4993265;28;20204;-77
2023/07/05 02:44:44;;;;;;;1.60;0.60;;;20.60;99.90;;;;;;4995072;28;20200;-77
2023/07/05 02:47:15;;;;;;;0.80;0.77;;;20.70;99.90;;;;;;4995270;28;20210;-77
2023/07/05 02:49:48;;;;;;;0.60;0.60;;;20.70;99.90;;;;;;4995181;28;20253;-78
2023/07/05 02:52:19;;;;;;;1.20;0.50;;;20.80;99.90;;;;;;4994063;28;20303;-78
2023/07/05 02:54:50;;;;;;;0.30;0.30;;;20.80;99.90;;;;;;4993850;28;20210;-77
2023/07/05 02:57:22;;;;;;;1.25;0.40;;;20.90;99.90;;;;;;4993395;28;20236;-78
2023/07/05 02:59:53;;;;;;;0.38;0.38;;;21.00;99.90;;;;;;4993485;28;20595;-76
2023/07/05 03:02:24;;;;;;;1.65;0.47;;;20.90;99.90;;;;;;4995052;28;20278;-77
2023/07/05 03:04:57;;;;;;;0.60;0.47;;;20.90;99.90;;;;;;4994364;28;20210;-80
2023/07/05 03:07:28;;;;;;;1.80;1.10;;;20.90;99.90;;;;;;4993673;28;20204;-78
2023/07/05 03:09:59;;;;;;;3.28;2.15;;;20.90;99.90;;;;;;4993533;28;20195;-80
2023/07/05 03:12:31;;;;;;;1.45;0.63;;;21.00;99.90;;;;;;4994650;28;20198;-75
2023/07/05 03:15:02;;;;;;;1.13;0.60;;;21.00;99.90;;;;;;4994634;28;20224;-79
2023/07/05 03:17:33;;;;;;;2.38;0.73;;;21.10;99.90;;;;;;4992741;28;20203;-78
2023/07/05 03:20:06;;;;;;;0.77;0.70;;;21.10;99.90;;;;;;4994530;28;20192;-79
2023/07/05 03:22:37;;;;;;;0.90;0.68;;;21.10;99.90;;;;;;4994469;28;20195;-77
2023/07/05 03:25:09;;;;;;;1.20;0.90;;;21.10;99.90;;;;;;4993575;28;20295;-76
2023/07/05 03:27:40;;;;;;;3.47;0.80;;;21.20;99.90;;;;;;4992818;28;20206;-77
2023/07/05 03:30:12;;;;;;;1.38;0.90;;;21.20;99.90;;;;;;4994132;28;20192;-77
2023/07/05 03:32:44;;;;;;;1.23;0.98;;;21.10;99.90;;;;;;4993373;28;20200;-76
2023/07/05 03:35:18;;;;;;;2.10;0.90;;;21.10;99.90;;;;;;4993167;28;20214;-80
2023/07/05 03:37:49;;;;;;;2.65;1.10;;;21.00;99.90;;;;;;4994252;28;20562;-78
2023/07/05 03:40:20;;;;;;;1.13;1.02;;;21.00;99.90;;;;;;4994183;28;20199;-77
2023/07/05 03:42:51;;;;;;;1.50;1.00;;;21.00;99.90;;;;;;4986198;28;20211;-80
2023/07/05 03:45:22;;;;;;;2.28;1.08;;;21.10;99.90;;;;;;4976988;28;20204;-79
2023/07/05 03:47:54;;;;;;;2.20;1.23;;;21.10;99.90;;;;;;4994194;28;20202;-79
2023/07/05 03:50:27;;;;;;;1.20;0.98;;;21.20;99.90;;;;;;4994004;28;20203;-79
2023/07/05 03:52:58;;;;;;;2.28;1.50;;;21.20;99.90;;;;;;4994024;28;20218;-79
2023/07/05 03:55:29;;;;;;;9.50;3.08;;;21.20;99.90;;;;;;4993370;28;20203;-77
2023/07/05 03:58:00;;;;;;;3.35;1.60;;;21.10;99.90;;;;;;4994097;28;20550;-78
2023/07/05 04:00:31;;;;;;;1.73;1.33;;;21.10;99.90;;;;;;4992946;28;20235;-80
2023/07/05 04:03:02;;;;;;;2.85;1.27;;;20.90;99.90;;;;;;4994342;28;20203;-78
2023/07/05 04:05:37;;;;;;;1.15;0.93;;;20.80;99.90;;;;;;4993162;28;20200;-79
2023/07/05 04:08:08;;;;;;;2.10;1.20;;;20.60;99.90;;;;;;4993904;28;20195;-79
2023/07/05 04:10:39;;;;;;;1.27;0.95;;;20.60;99.90;;;;;;4993606;28;20238;-77
2023/07/05 04:13:10;;;;;;;1.45;0.85;;;20.80;99.90;;;;;;4993229;28;20198;-78
2023/07/05 04:15:41;;;;;;;1.45;1.10;;;20.90;99.90;;;;;;4991795;28;20583;-78
2023/07/05 04:18:13;;;;;;;0.80;0.77;;;21.00;99.90;;;;;;4993985;28;20275;-78
2023/07/05 04:20:46;;;;;;;0.73;0.73;;;21.10;99.90;;;;;;4988630;28;20196;-78
2023/07/05 04:23:17;;;;;;;0.82;0.68;;;20.90;99.90;;;;;;4993288;28;20579;-77
2023/07/05 04:25:49;;;;;;;0.98;0.52;;;20.80;99.90;;;;;;4993533;28;20662;-77
2023/07/05 04:28:20;;;;;;;0.40;0.40;;;20.70;99.90;;;;;;4993049;28;20257;-78
2023/07/05 04:30:51;;;;;;;1.63;0.55;;;20.60;99.90;;;;;;4992416;28;20212;-79
2023/07/05 04:33:22;;;;;;;3.15;0.52;;;20.50;99.90;;;;;;4993693;28;20198;-76
2023/07/05 04:35:57;;;;;;;1.05;0.90;;;20.40;99.90;;;;;;4993656;28;20223;-79
2023/07/05 04:38:28;;;;;;;0.82;0.60;;;20.40;99.90;;;;;;4990823;28;20207;-78
2023/07/05 04:41:01;;;;;;;1.30;0.60;;;20.20;99.90;;;;;;4991542;28;20202;-79
2023/07/05 04:43:32;;;;;;;1.85;0.73;;;20.20;99.90;;;;;;4994238;28;20642;-78
2023/07/05 04:46:03;;;;;;;0.85;0.70;;;20.10;99.90;;;;;;4997474;28;20199;-76
2023/07/05 04:48:35;;;;;;;0.50;0.50;;;20.10;99.90;;;;;;4997725;28;20214;-78
2023/07/05 04:51:08;;;;;;;0.40;0.40;;;20.20;99.90;;;;;;4996950;28;20283;-77
2023/07/05 04:53:39;;;;;;;0.77;0.40;;;20.30;99.90;;;;;;4996589;28;20218;-77
2023/07/05 04:56:14;;;;;;;2.22;0.52;;;20.50;99.90;;;;;;4997103;28;20251;-78
2023/07/05 04:58:48;;;;;;;0.52;0.50;;;20.50;99.90;;;;;;4997661;28;20195;-77
2023/07/05 05:01:20;;;;;;;1.08;0.50;;;20.60;99.90;;;;;;4977474;28;20268;-78
2023/07/05 05:03:51;;;;;;;0.65;0.40;;;20.70;99.90;;;;;;4977632;28;20283;-76
2023/07/05 05:06:24;;;;;;;0.50;0.47;;;20.70;99.90;;;;;;4985252;28;20207;-78
2023/07/05 05:08:55;;;;;;;0.40;0.40;;;20.70;99.90;;;;;;4991830;28;20204;-78
2023/07/05 05:11:28;;;;;;;0.90;0.40;;;20.80;99.90;;;;;;4995282;28;20203;-77
2023/07/05 05:14:00;;;;;;;2.03;0.30;;;20.80;99.90;;;;;;4995743;28;20210;-76
2023/07/05 05:16:32;;;;;;;1.27;0.40;;;20.90;99.90;;;;;;4979296;28;20299;-76
2023/07/05 05:19:03;;;;;;;0.80;0.40;;;20.90;99.90;;;;;;4988292;28;20199;-78
2023/07/05 05:21:36;;;;;;;1.13;0.50;;;20.80;99.90;;;;;;4988921;28;20199;-76
2023/07/05 05:24:07;;;;;;;2.22;0.40;;;20.70;99.90;;;;;;4996076;28;20659;-76
2023/07/05 05:26:38;;;;;;;0.40;0.40;;;20.80;99.90;;;;;;4995100;28;20617;-77
2023/07/05 05:29:11;;;;;;;0.47;0.40;;;20.80;99.90;;;;;;4995566;28;20211;-76
2023/07/05 05:31:42;;;;;;;0.95;0.50;;;20.80;99.90;;;;;;4985739;28;20226;-76
2023/07/05 05:34:13;;;;;;;0.95;0.40;;;20.80;99.90;;;;;;4995645;28;20546;-76
2023/07/05 05:36:47;;;;;;;1.45;0.70;;;20.80;99.90;;;;;;4996361;28;20215;-76
2023/07/05 05:39:18;;;;;;;0.70;0.70;;;20.70;99.90;;;;;;4994478;28;20210;-77
2023/07/05 05:41:49;;;;;;;0.95;0.60;;;20.80;99.90;;;;;;4995380;28;20239;-76
2023/07/05 05:44:20;;;;;;;0.98;0.65;;;20.70;99.90;;;;;;4995157;28;20199;-76
2023/07/05 05:46:51;;;;;;;0.60;0.60;;;20.70;99.90;;;;;;4994431;28;20211;-76
2023/07/05 05:49:23;;;;;;;1.25;0.50;;;20.70;99.90;;;;;;4994464;28;20659;-76
2023/07/05 05:51:57;;;;;;;0.68;0.50;;;20.70;99.90;;;;;;4993379;28;20192;-76
2023/07/05 05:54:28;;;;;;;1.10;0.60;;;20.60;99.90;;;;;;4995840;28;20291;-75
2023/07/05 05:56:59;;;;;;;1.13;0.73;;;20.50;99.90;;;;;;4995706;28;20243;-76
2023/07/05 05:59:30;;;;;;;0.55;0.55;;;20.40;99.90;;;;;;4994017;28;20641;-76
2023/07/05 06:02:01;;;;;;;1.60;0.82;;;20.30;99.90;;;;;;4994213;28;20531;-75
2023/07/05 06:04:32;;;;;;;1.15;0.70;;;20.10;99.90;;;;;;4992865;28;20200;-76
2023/07/05 06:07:06;;;;;;;1.00;0.80;;;20.00;99.90;;;;;;4983154;28;20226;-76
2023/07/05 06:09:41;;;;;;;1.98;0.80;;;19.90;99.90;;;;;;4995765;28;20199;-76
2023/07/05 06:12:13;;;;;;;3.33;0.70;;;19.80;99.90;;;;;;4995617;28;20203;-75
2023/07/05 06:14:44;;;;;;;1.55;0.70;;;19.70;99.90;;;;;;4990788;28;20199;-76
2023/07/05 06:17:15;;;;;;;1.10;0.73;;;19.70;99.90;;;;;;4993948;28;20228;-76
2023/07/05 06:19:46;;;;;;;1.90;0.90;;;19.50;99.90;;;;;;4995411;28;20690;-76
2023/07/05 06:22:20;;;;;;;2.53;0.85;;;19.50;99.90;;;;;;4995329;28;20210;-77
2023/07/05 06:24:51;;;;;;;2.45;0.70;;;19.40;99.90;;;;;;4994902;28;20698;-76
2023/07/05 06:27:22;;;;;;;2.22;0.77;;;19.30;99.90;;;;;;4993416;28;20317;-76
2023/07/05 06:29:53;;;;;;;1.13;0.70;;;19.30;99.90;;;;;;4994312;28;20686;-75
2023/07/05 06:32:24;;;;;;;0.70;0.70;;;19.30;99.90;;;;;;4993817;28;20191;-80
2023/07/05 06:34:55;;;;;;;0.57;0.50;;;19.30;99.90;;;;;;4995432;28;20200;-79
2023/07/05 06:37:29;;;;;;;0.85;0.75;;;19.20;99.90;;;;;;4994835;28;20588;-80
2023/07/05 06:40:00;;;;;;;1.10;0.57;;;19.20;99.90;;;;;;4994323;28;20211;-79
2023/07/05 06:42:31;;;;;;;2.28;0.60;;;19.20;99.90;;;;;;4993910;28;20196;-80
2023/07/05 06:45:02;;;;;;;1.75;0.50;;;19.20;99.90;;;;;;4995190;28;20210;-79
2023/07/05 06:47:33;;;;;;;1.20;0.40;;;19.20;99.90;;;;;;4995090;28;20278;-80
2023/07/05 06:50:04;;;;;;;0.88;0.50;;;19.20;99.90;;;;;;4993864;28;20724;-80
2023/07/05 06:52:37;;;;;;;0.63;0.50;;;19.10;99.90;;;;;;4994327;28;20192;-79
2023/07/05 06:55:09;;;;;;;1.65;0.50;;;19.10;99.90;;;;;;4994803;28;20559;-79
2023/07/05 06:57:40;;;;;;;1.10;0.52;;;19.10;99.90;;;;;;4994842;28;20243;-80
2023/07/05 07:00:12;;;;;;;0.55;0.50;;;19.00;99.90;;;;;;4993846;28;20237;-80
2023/07/05 07:02:44;;;;;;;1.73;0.60;;;19.00;99.90;;;;;;4994898;28;20207;-80
2023/07/05 07:05:15;;;;;;;1.52;0.63;;;19.00;99.90;;;;;;4993955;28;20279;-80
2023/07/05 07:07:48;;;;;;;1.30;0.70;;;19.00;99.90;;;;;;4993750;28;20218;-80
2023/07/05 07:10:19;;;;;;;1.00;0.70;;;18.90;99.90;;;;;;4994379;28;20204;-80
2023/07/05 07:12:50;;;;;;;0.60;0.50;;;18.90;99.90;;;;;;4994534;28;20206;-79
2023/07/05 07:15:21;;;;;;;1.63;0.80;;;18.80;99.90;;;;;;4993614;28;20202;-79
2023/07/05 07:17:52;;;;;;;1.30;0.60;;;18.70;99.90;;;;;;4994175;28;20227;-79
2023/07/05 07:20:25;;;;;;;1.05;0.60;;;18.60;99.90;;;;;;4985199;28;20206;-79
2023/07/05 07:22:59;;;;;;;0.73;0.50;;;18.60;99.90;;;;;;4994167;28;20200;-80
2023/07/05 07:25:30;;;;;;;0.73;0.40;;;18.50;99.90;;;;;;4986226;28;20203;-80
2023/07/05 07:28:01;;;;;;;1.00;0.60;;;18.50;99.90;;;;;;4993712;28;20204;-79
2023/07/05 07:30:32;;;;;;;1.30;0.32;;;18.40;99.90;;;;;;4994403;28;20199;-80
2023/07/05 07:33:04;;;;;;;0.80;0.60;;;18.50;99.90;;;;;;4981228;28;20195;-78
2023/07/05 07:35:35;;;;;;;0.73;0.57;;;18.40;99.90;;;;;;4988798;28;20204;-79
2023/07/05 07:38:08;;;;;;;0.90;0.60;;;18.40;99.90;;;;;;4993015;28;20227;-79
2023/07/05 07:40:40;;;;;;;0.63;0.47;;;18.40;99.90;;;;;;4990435;28;20200;-79
2023/07/05 07:43:11;;;;;;;0.68;0.60;;;18.30;99.90;;;;;;4994089;28;20203;-78
2023/07/05 07:45:43;;;;;;;1.42;0.80;;;18.20;99.90;;;;;;4992239;28;20677;-78
2023/07/05 07:48:14;;;;;;;0.70;0.70;;;18.20;99.90;;;;;;4988217;28;20228;-79
2023/07/05 07:50:52;;;;;;;1.27;0.73;;;18.00;99.90;;;;;;4992086;28;20200;-79
2023/07/05 07:53:25;;;;;;;1.17;0.60;;;17.90;99.90;;;;;;4987489;28;20563;-79
2023/07/05 07:55:56;;;;;;;0.75;0.68;;;17.80;99.90;;;;;;4990964;28;20558;-79
2023/07/05 07:58:27;;;;;;;1.17;0.60;;;17.70;99.90;;;;;;4988912;28;20223;-77
2023/07/05 08:00:58;;;;;;;0.50;0.50;;;17.60;99.90;;;;;;4990422;28;20235;-78
2023/07/05 08:03:29;;;;;;;4.32;1.48;;;17.50;99.90;;;;;;4993490;28;20195;-76
2023/07/05 08:06:01;;;;;;;2.25;0.80;;;17.40;99.90;;;;;;4988220;28;20609;-79
2023/07/05 08:08:34;;;;;;;2.15;0.90;;;17.30;99.90;;;;;;4997487;28;20195;-79
2023/07/05 08:11:05;;;;;;;2.17;1.08;;;17.20;99.90;;;;;;4991764;28;20555;-76
2023/07/05 08:13:37;;;;;;;2.63;1.27;;;17.20;99.90;;;;;;4983043;28;20195;-79
2023/07/05 08:16:08;;;;;;;1.50;1.00;;;17.10;99.90;;;;;;4993971;28;20666;-79
2023/07/05 08:18:40;;;;;;;1.98;0.93;;;17.10;99.90;;;;;;4996047;28;20211;-78
2023/07/05 08:21:12;;;;;;;1.75;1.10;;;17.00;99.90;;;;;;4996762;28;20671;-79
2023/07/05 08:23:46;;;;;;;1.65;1.00;;;17.00;99.90;;;;;;4994658;28;20195;-78
2023/07/05 08:26:18;;;;;;;2.38;0.90;;;17.00;99.90;;;;;;4996875;28;20196;-79
2023/07/05 08:28:49;;;;;;;1.80;0.85;;;17.00;99.90;;;;;;4996028;28;20225;-79
2023/07/05 08:31:21;;;;;;;2.63;1.05;;;17.00;99.90;;;;;;4997293;28;20210;-78
2023/07/05 08:33:52;;;;;;;1.08;0.80;;;17.00;99.90;;;;;;4996279;28;20582;-79
2023/07/05 08:36:34;;;;;;;1.45;0.98;;;17.00;99.90;;;;;;4996367;28;20199;-78
2023/07/05 08:39:08;;;;;;;1.45;0.68;;;17.00;99.90;;;;;;4996633;28;20211;-78
2023/07/05 08:41:55;;;;;;;1.38;0.82;;;17.00;99.90;;;;;;4996385;28;20663;-78
2023/07/05 08:44:34;;;;;;;0.80;0.80;;;17.00;99.90;;;;;;4990437;28;20199;-79
2023/07/05 08:47:14;;;;;;;1.52;0.98;;;17.00;99.90;;;;;;4995780;28;20202;-78
2023/07/05 08:49:51;;;;;;;1.70;0.90;;;17.00;99.90;;;;;;4989233;28;20196;-79
2023/07/05 08:52:27;;;;;;;2.05;1.30;;;17.00;99.90;;;;;;4992000;28;20211;-78
2023/07/05 08:55:03;;;;;;;1.95;1.13;;;17.00;99.90;;;;;;4994575;28;20210;-78
2023/07/05 08:57:39;;;;;;;1.23;0.93;;;17.00;99.90;;;;;;4983207;28;20322;-79
2023/07/05 09:00:16;;;;;;;1.85;1.20;;;17.10;99.90;;;;;;4993458;28;20714;-79
2023/07/05 09:02:47;;;;;;;2.40;0.93;;;17.20;99.90;;;;;;4994280;28;20201;-78
2023/07/05 09:05:24;;;;;;;2.40;1.10;;;17.20;99.90;;;;;;4991019;28;20203;-77
2023/07/05 09:08:07;;;;;;;1.80;1.20;;;17.30;99.90;;;;;;4994097;28;20636;-78
2023/07/05 09:10:43;;;;;;;2.17;1.17;;;17.40;99.90;;;;;;4990273;28;20566;-78
2023/07/05 09:13:18;;;;;;;3.63;1.45;;;17.40;99.90;;;;;;4994243;28;20199;-78
2023/07/05 09:15:56;;;;;;;2.35;1.63;;;17.40;99.90;;;;;;4996595;28;20671;-78
2023/07/05 09:18:38;;;;;;;1.85;1.35;;;17.40;99.90;;;;;;4994049;28;20215;-77
2023/07/05 09:21:30;;;;;;;3.22;2.00;;;17.40;99.90;;;;;;4995607;28;20683;-78
2023/07/05 09:24:11;;;;;;;3.33;1.98;;;17.40;99.90;;;;;;4990958;28;20204;-79
2023/07/05 09:26:48;;;;;;;2.25;1.83;;;17.40;99.90;;;;;;4995610;28;20200;-79
2023/07/05 09:29:25;;;;;;;2.88;1.80;;;17.40;99.90;;;;;;4995621;28;20742;-78
2023/07/05 09:31:58;;;;;;;2.63;1.70;;;17.40;99.90;;;;;;4994589;28;20203;-78
2023/07/05 09:34:33;;;;;;;2.15;1.60;;;17.30;99.90;;;;;;4994432;28;20574;-78
2023/07/05 09:37:13;;;;;;;2.70;1.83;;;17.30;99.90;;;;;;4995163;28;20199;-78
2023/07/05 09:39:53;;;;;;;3.13;1.73;;;17.30;99.90;;;;;;4985532;28;20203;-76
2023/07/05 09:42:31;;;;;;;5.03;1.48;;;17.30;99.90;;;;;;4993575;28;20191;-78
2023/07/05 09:45:03;;;;;;;1.45;1.20;;;17.30;99.90;;;;;;4995666;28;20205;-78
2023/07/05 09:47:37;;;;;;;2.15;1.20;;;17.20;99.90;;;;;;4994379;28;20204;-77
2023/07/05 09:50:16;;;;;;;1.67;1.20;;;17.20;99.90;;;;;;4992672;28;20214;-78
2023/07/05 09:52:49;;;;;;;1.73;1.10;;;17.20;99.90;;;;;;4993073;28;20197;-75
2023/07/05 09:55:21;;;;;;;1.10;1.00;;;17.20;99.90;;;;;;4990292;28;20214;-77
2023/07/05 09:57:56;;;;;;;2.05;1.25;;;17.10;99.90;;;;;;4994691;28;20216;-75
2023/07/05 10:00:31;;;;;;;1.35;1.00;;;17.00;99.90;;;;;;4992892;28;20230;-76
2023/07/05 10:03:09;;;;;;;1.63;0.90;;;17.00;99.90;;;;;;4991429;28;20203;-77
2023/07/05 10:05:40;;;;;;;2.53;1.13;;;17.00;99.90;;;;;;4992657;28;20210;-76
2023/07/05 10:08:19;;;;;;;1.00;0.80;;;17.00;99.90;;;;;;4988558;28;20196;-76
2023/07/05 10:10:50;;;;;;;0.80;0.80;;;16.90;99.90;;;;;;4988082;28;20196;-77
2023/07/05 10:13:27;;;;;;;0.85;0.80;;;16.90;99.90;;;;;;4988552;28;20196;-78
2023/07/05 10:16:05;;;;;;;1.65;0.85;;;16.90;99.90;;;;;;4995451;28;20203;-76
2023/07/05 10:18:37;;;;;;;1.13;0.90;;;16.80;99.90;;;;;;4994825;28;20219;-76
2023/07/05 10:21:18;;;;;;;1.00;0.90;;;16.80;99.90;;;;;;4992679;28;20210;-76
2023/07/05 10:23:50;;;;;;;1.17;1.00;;;16.70;99.90;;;;;;4991330;28;20206;-76
2023/07/05 10:26:21;;;;;;;1.20;1.10;;;16.70;99.90;;;;;;4995321;28;20203;-78
2023/07/05 10:28:56;;;;;;;1.13;1.00;;;16.70;99.90;;;;;;4995246;28;20206;-77
2023/07/05 10:31:33;;;;;;;1.65;1.40;;;16.60;99.90;;;;;;4993888;28;20198;-76
2023/07/05 10:34:24;;;;;;;1.42;1.15;;;16.60;99.90;;;;;;4992004;28;20204;-78
2023/07/05 10:36:56;;;;;;;1.48;1.38;;;16.50;99.90;;;;;;4984326;28;20263;-75
2023/07/05 10:39:28;;;;;;;2.40;1.67;;;16.50;99.90;;;;;;4994946;28;20262;-76
2023/07/05 10:42:02;;;;;;;1.88;1.42;;;16.50;99.90;;;;;;4991193;28;20544;-76
2023/07/05 10:44:36;;;;;;;3.20;1.95;;;16.40;99.90;;;;;;4993176;28;20231;-76
2023/07/05 10:47:08;;;;;;;3.45;1.88;;;16.40;99.90;;;;;;4994107;28;20218;-77
2023/07/05 10:49:40;;;;;;;2.95;1.88;;;16.40;99.90;;;;;;4994957;28;20199;-76
2023/07/05 10:52:17;;;;;;;2.88;1.80;;;16.30;99.90;;;;;;4992970;28;20206;-76
2023/07/05 10:54:53;;;;;;;3.60;1.85;;;16.30;99.90;;;;;;4993255;28;20203;-77
2023/07/05 10:57:28;;;;;;;3.15;1.80;;;16.20;99.90;;;;;;4981314;28;20273;-78
2023/07/05 11:00:11;;;;;;;3.22;1.80;;;16.20;99.90;;;;;;4992599;28;20237;-76
2023/07/05 11:02:48;;;;;;;5.32;1.75;;;16.10;99.90;;;;;;4994783;28;20207;-77
2023/07/05 11:05:26;;;;;;;2.20;1.30;;;16.10;99.90;;;;;;4994721;28;20192;-76
2023/07/05 11:08:01;;;;;;;1.90;1.23;;;16.00;99.90;;;;;;4989510;28;20210;-76
2023/07/05 11:10:38;;;;;;;2.28;1.30;;;15.90;99.90;;;;;;4989836;28;20662;-76
2023/07/05 11:13:11;;;;;;;2.33;1.08;;;15.90;99.90;;;;;;4994261;28;20195;-75
2023/07/05 11:15:44;;;;;;;1.00;0.80;;;15.80;99.90;;;;;;4992495;28;20279;-75
2023/07/05 11:18:19;;;;;;;1.10;0.88;;;15.80;99.90;;;;;;4990867;28;20211;-75
2023/07/05 11:20:54;;;;;;;2.38;0.82;;;15.80;99.90;;;;;;4993663;28;20203;-76
2023/07/05 11:23:55;;;;;;;0.95;0.80;;;15.80;99.90;;;;;;4987198;28;20218;-75
2023/07/05 11:26:35;;;;;;;1.17;0.90;;;15.80;99.90;;;;;;4978721;28;20199;-75
2023/07/05 11:29:52;;;;;;;1.75;1.05;;;15.70;99.90;;;;;;4988744;28;20703;-76
2023/07/05 11:32:26;;;;;;;0.98;0.90;;;15.70;99.90;;;;;;4986856;28;20203;-78
2023/07/05 11:34:58;;;;;;;1.45;0.85;;;15.60;99.90;;;;;;4990878;28;20211;-78
2023/07/05 11:37:53;;;;;;;1.95;1.33;;;15.60;99.90;;;;;;4992166;28;20207;-78
2023/07/05 11:41:04;;;;;;;2.58;1.17;;;15.60;99.90;;;;;;4991082;28;20214;-77
2023/07/05 11:43:41;;;;;;;1.55;1.30;;;15.50;99.90;;;;;;4984099;28;20200;-77
2023/07/05 11:46:46;;;;;;;2.53;1.15;;;15.50;99.90;;;;;;4984138;28;20210;-78
2023/07/05 11:49:32;;;;;;;1.95;1.25;;;15.60;99.90;;;;;;4986803;28;20196;-76
2023/07/05 11:52:07;;;;;;;2.28;1.42;;;15.30;99.90;;;;;;4984224;28;20286;-77
2023/07/05 11:54:53;;;;;;;3.28;1.55;;;15.40;99.90;;;;;;4986210;28;20678;-77
2023/07/05 11:57:25;;;;;;;1.63;1.23;;;15.30;99.90;;;;;;4989160;28;20220;-77
2023/07/05 12:00:09;;;;;;;2.65;1.30;;;15.30;99.90;;;;;;4985874;28;20247;-77
2023/07/05 12:02:58;;;;;;;1.83;1.35;;;15.20;99.90;;;;;;4993017;28;20195;-77
2023/07/05 12:05:33;;;;;;;1.98;1.23;;;15.20;99.90;;;;;;4993172;28;20235;-77
2023/07/05 12:08:10;;;;;;;2.15;1.50;;;15.20;99.90;;;;;;4993598;28;20596;-76
2023/07/05 12:10:44;;;;;;;1.73;1.13;;;15.20;99.90;;;;;;4993640;28;20195;-77
2023/07/05 12:13:24;;;;;;;1.42;1.10;;;15.10;99.90;;;;;;4993526;28;20199;-77
2023/07/05 12:15:55;;;;;;;2.00;1.02;;;15.10;99.90;;;;;;4993972;28;20196;-77
2023/07/05 12:18:27;;;;;;;2.40;1.50;;;15.00;99.90;;;;;;4993767;28;20219;-78
2023/07/05 12:21:00;;;;;;;2.50;1.30;;;15.00;99.90;;;;;;4993174;28;20200;-78
2023/07/05 12:23:35;;;;;;;1.42;1.05;;;14.90;99.90;;;;;;4979991;28;20633;-77
2023/07/05 12:26:13;;;;;;;1.83;1.20;;;14.90;99.90;;;;;;4994040;28;20191;-77
2023/07/05 12:28:51;;;;;;;2.90;1.20;;;14.90;99.90;;;;;;4992500;28;20207;-76
2023/07/05 12:31:25;;;;;;;3.17;1.70;;;14.80;99.90;;;;;;4992342;28;20199;-77
2023/07/05 12:33:58;;;;;;;2.55;1.55;;;14.80;99.90;;;;;;4993665;28;20196;-78
2023/07/05 12:36:31;;;;;;;3.10;1.38;;;14.80;99.90;;;;;;4993711;28;20198;-77
2023/07/05 12:39:12;;;;;;;1.80;1.30;;;14.80;99.90;;;;;;4993373;28;20230;-77
2023/07/05 12:41:45;;;;;;;2.10;1.20;;;14.80;99.90;;;;;;4992628;28;20567;-77
2023/07/05 12:44:16;;;;;;;2.67;1.40;;;14.70;99.90;;;;;;4992843;28;20192;-77
2023/07/05 12:46:48;;;;;;;1.73;1.20;;;14.60;99.90;;;;;;4991971;28;20203;-77
2023/07/05 12:49:26;;;;;;;2.15;1.38;;;14.60;99.90;;;;;;4991667;28;20207;-78
2023/07/05 12:52:00;;;;;;;1.80;1.30;;;14.60;99.90;;;;;;4992113;28;20245;-78
2023/07/05 12:54:31;;;;;;;2.58;1.38;;;14.60;99.90;;;;;;4993402;28;20196;-75
2023/07/05 12:57:02;;;;;;;2.13;1.30;;;14.60;99.90;;;;;;4993215;28;20710;-77
2023/07/05 12:59:36;;;;;;;2.33;1.50;;;14.60;99.90;;;;;;4992187;28;20220;-77
2023/07/05 13:02:09;;;;;;;2.72;1.27;;;14.60;99.90;;;;;;4992193;28;20580;-77
2023/07/05 13:04:45;;;;;;;2.10;1.30;;;14.50;99.90;;;;;;4995032;28;20204;-76
2023/07/05 13:07:23;;;;;;;2.17;1.25;;;14.40;99.90;;;;;;4996821;28;20250;-77
2023/07/05 13:10:01;;;;;;;3.35;1.25;;;14.40;99.90;;;;;;4997276;28;20195;-78
2023/07/05 13:12:50;;;;;;;2.55;1.35;;;14.40;99.90;;;;;;4995897;28;20282;-77
2023/07/05 13:15:22;;;;;;;2.33;1.30;;;14.40;99.90;;;;;;4996293;28;20195;-77
2023/07/05 13:17:53;;;;;;;1.60;1.30;;;14.30;99.90;;;;;;4987584;28;20204;-77
2023/07/05 13:20:26;;;;;;;2.03;1.30;;;14.30;99.90;;;;;;4992059;28;20230;-77
2023/07/05 13:22:59;;;;;;;1.70;1.30;;;14.30;99.90;;;;;;4994062;28;20686;-77